createdAt,value
2019-04-01T00:00:36.032Z,8.16
2019-04-01T00:03:05.982Z,7.88
2019-04-01T00:05:34.619Z,7.93
2019-04-01T00:08:03.367Z,7.70
2019-04-01T00:10:32.058Z,7.61
2019-04-01T00:13:00.620Z,7.56
2019-04-01T00:15:29.258Z,7.72
2019-04-01T00:17:57.939Z,7.79
2019-04-01T00:20:26.579Z,7.81
2019-04-01T00:22:55.209Z,7.83
2019-04-01T00:25:24.314Z,7.78
2019-04-01T00:27:52.958Z,7.67
2019-04-01T00:30:21.603Z,7.66
2019-04-01T00:32:50.311Z,7.64
2019-04-01T00:35:18.963Z,7.59
2019-04-01T00:37:47.593Z,7.47
2019-04-01T00:40:17.500Z,7.11
2019-04-01T00:42:53.671Z,7.21
2019-04-01T00:45:23.991Z,7.19
2019-04-01T00:47:52.492Z,7.24
2019-04-01T00:50:21.136Z,7.09
2019-04-01T00:52:49.825Z,7.02
2019-04-01T00:55:18.425Z,7.23
2019-04-01T00:57:46.981Z,7.14
2019-04-01T01:00:18.096Z,7.23
2019-04-01T01:02:46.755Z,7.14
2019-04-01T01:05:15.399Z,6.97
2019-04-01T01:07:44.012Z,6.96
2019-04-01T01:10:13.082Z,7.09
2019-04-01T01:12:41.731Z,7.27
2019-04-01T01:15:10.431Z,7.67
2019-04-01T01:17:39.002Z,7.80
2019-04-01T01:20:07.737Z,7.74
2019-04-01T01:22:36.424Z,7.68
2019-04-01T01:25:05.468Z,7.70
2019-04-01T01:27:34.111Z,7.47
2019-04-01T01:30:03.413Z,6.95
2019-04-01T01:32:32.061Z,6.91
2019-04-01T01:35:00.702Z,6.93
2019-04-01T01:37:29.401Z,6.73
2019-04-01T01:39:58.049Z,6.77
2019-04-01T01:42:26.688Z,6.71
2019-04-01T01:44:55.382Z,6.73
2019-04-01T01:47:24.022Z,6.61
2019-04-01T01:49:52.665Z,6.50
2019-04-01T01:52:21.298Z,6.50
2019-04-01T01:54:49.914Z,6.59
2019-04-01T01:57:18.563Z,6.77
2019-04-01T01:59:47.476Z,6.65
2019-04-01T02:02:16.122Z,6.73
2019-04-01T02:04:44.772Z,7.13
2019-04-01T02:07:13.843Z,6.92
2019-04-01T02:09:42.482Z,7.04
2019-04-01T02:12:11.191Z,6.93
2019-04-01T02:14:39.873Z,6.84
2019-04-01T02:17:08.510Z,7.10
2019-04-01T02:19:37.154Z,6.92
2019-04-01T02:22:05.843Z,6.89
2019-04-01T02:24:34.485Z,6.85
2019-04-01T02:27:03.128Z,7.05
2019-04-01T02:29:31.738Z,6.85
2019-04-01T02:32:00.381Z,6.75
2019-04-01T02:34:28.946Z,6.88
2019-04-01T02:36:57.503Z,6.27
2019-04-01T02:39:28.397Z,6.22
2019-04-01T02:41:57.031Z,6.14
2019-04-01T02:44:25.704Z,6.07
2019-04-01T02:46:54.285Z,6.21
2019-04-01T02:49:22.938Z,6.18
2019-04-01T02:51:51.621Z,5.87
2019-04-01T02:54:20.397Z,5.92
2019-04-01T02:56:48.859Z,5.72
2019-04-01T02:59:17.806Z,5.74
2019-04-01T03:01:47.038Z,6.05
2019-04-01T03:04:15.695Z,5.73
2019-04-01T03:06:45.946Z,5.66
2019-04-01T03:09:14.704Z,5.59
2019-04-01T03:11:43.335Z,5.46
2019-04-01T03:14:12.019Z,5.67
2019-04-01T03:16:40.588Z,5.65
2019-04-01T03:19:09.692Z,5.39
2019-04-01T03:21:38.312Z,5.56
2019-04-01T03:24:06.963Z,5.45
2019-04-01T03:26:35.604Z,5.57
2019-04-01T03:29:05.986Z,5.55
2019-04-01T03:31:34.692Z,5.52
2019-04-01T03:34:03.837Z,6.04
2019-04-01T03:36:32.487Z,5.73
2019-04-01T03:39:01.141Z,5.73
2019-04-01T03:41:30.074Z,5.84
2019-04-01T03:43:59.059Z,6.00
2019-04-01T03:46:27.698Z,5.74
2019-04-01T03:48:56.399Z,5.48
2019-04-01T03:51:25.050Z,5.49
2019-04-01T03:53:53.704Z,5.34
2019-04-01T03:56:22.910Z,5.27
2019-04-01T03:58:51.557Z,5.17
2019-04-01T04:01:20.198Z,5.08
2019-04-01T04:03:48.847Z,5.18
2019-04-01T04:06:17.384Z,5.18
2019-04-01T04:08:45.947Z,5.46
2019-04-01T04:11:14.784Z,5.42
2019-04-01T04:13:43.357Z,5.12
2019-04-01T04:16:12.005Z,5.03
2019-04-01T04:18:40.625Z,4.83
2019-04-01T04:21:09.157Z,4.81
2019-04-01T04:23:37.898Z,5.17
2019-04-01T04:26:06.771Z,5.29
2019-04-01T04:28:35.416Z,5.68
2019-04-01T04:31:04.071Z,5.17
2019-04-01T04:33:33.147Z,5.11
2019-04-01T04:36:01.718Z,5.45
2019-04-01T04:38:30.283Z,5.17
2019-04-01T04:40:58.967Z,6.34
2019-04-01T04:43:28.524Z,6.40
2019-04-01T04:45:57.179Z,6.20
2019-04-01T04:48:25.893Z,6.69
2019-04-01T04:50:54.557Z,7.78
2019-04-01T04:53:23.209Z,6.64
2019-04-01T04:55:52.764Z,6.64
2019-04-01T04:58:21.412Z,6.33
2019-04-01T05:00:50.059Z,5.58
2019-04-01T05:03:18.831Z,5.46
2019-04-01T05:05:47.547Z,4.92
2019-04-01T05:08:16.190Z,4.92
2019-04-01T05:10:45.302Z,6.09
2019-04-01T05:13:13.948Z,5.86
2019-04-01T05:15:42.675Z,6.25
2019-04-01T05:18:11.380Z,6.61
2019-04-01T05:20:40.796Z,7.09
2019-04-01T05:23:10.150Z,7.42
2019-04-01T05:25:40.437Z,7.17
2019-04-01T05:28:11.612Z,7.30
2019-04-01T05:30:41.646Z,7.59
2019-04-01T05:33:12.963Z,7.51
2019-04-01T05:35:41.639Z,7.84
2019-04-01T05:38:11.155Z,8.30
2019-04-01T05:40:39.880Z,8.31
2019-04-01T05:43:08.547Z,8.83
2019-04-01T05:45:37.193Z,8.74
2019-04-01T05:48:07.543Z,9.14
2019-04-01T05:50:39.128Z,9.20
2019-04-01T05:53:07.786Z,9.19
2019-04-01T05:55:38.421Z,9.38
2019-04-01T05:58:07.459Z,9.39
2019-04-01T06:00:56.150Z,9.24
2019-04-01T06:03:25.374Z,9.78
2019-04-01T06:05:56.294Z,9.99
2019-04-01T06:08:26.460Z,9.78
2019-04-01T06:10:55.132Z,10.04
2019-04-01T06:13:25.446Z,10.04
2019-04-01T06:15:54.723Z,10.51
2019-04-01T06:18:23.495Z,11.03
2019-04-01T06:20:52.761Z,10.97
2019-04-01T06:23:21.491Z,10.25
2019-04-01T06:25:50.200Z,10.70
2019-04-01T06:28:20.153Z,11.07
2019-04-01T06:30:48.902Z,10.84
2019-04-01T06:33:17.660Z,10.51
2019-04-01T06:35:46.380Z,11.18
2019-04-01T06:38:16.843Z,12.10
2019-04-01T06:40:45.513Z,11.88
2019-04-01T06:43:14.253Z,11.38
2019-04-01T06:45:43.487Z,12.01
2019-04-01T06:48:12.147Z,12.39
2019-04-01T06:50:42.242Z,12.50
2019-04-01T06:53:10.973Z,12.52
2019-04-01T06:55:41.283Z,12.50
2019-04-01T06:58:11.944Z,12.35
2019-04-01T07:00:40.851Z,12.67
2019-04-01T07:03:09.506Z,13.30
2019-04-01T07:05:38.183Z,12.98
2019-04-01T07:08:07.233Z,13.00
2019-04-01T07:10:35.869Z,13.13
2019-04-01T07:13:06.027Z,13.24
2019-04-01T07:15:34.741Z,13.22
2019-04-01T07:18:04.862Z,12.51
2019-04-01T07:20:33.501Z,13.00
2019-04-01T07:23:02.487Z,13.28
2019-04-01T07:25:34.044Z,13.57
2019-04-01T07:28:01.649Z,14.07
2019-04-01T07:30:31.929Z,13.71
2019-04-01T07:33:00.576Z,13.98
2019-04-01T07:35:29.432Z,14.09
2019-04-01T07:37:59.397Z,14.10
2019-04-01T07:40:28.070Z,14.23
2019-04-01T07:42:57.114Z,14.57
2019-04-01T07:45:25.834Z,13.95
2019-04-01T07:47:57.303Z,13.99
2019-04-01T07:50:26.322Z,14.85
2019-04-01T07:52:55.529Z,15.09
2019-04-01T07:55:24.664Z,15.22
2019-04-01T07:57:54.016Z,15.17
2019-04-01T08:00:24.143Z,15.40
2019-04-01T08:02:52.734Z,15.54
2019-04-01T08:05:25.895Z,15.16
2019-04-01T08:08:00.175Z,15.22
2019-04-01T08:10:24.011Z,15.78
2019-04-01T08:12:52.901Z,15.52
2019-04-01T08:15:21.678Z,15.93
2019-04-01T08:17:50.350Z,15.79
2019-04-01T08:20:19.215Z,15.92
2019-04-01T08:22:47.851Z,15.30
2019-04-01T08:25:16.540Z,15.75
2019-04-01T08:27:50.307Z,15.66
2019-04-01T08:30:20.623Z,16.25
2019-04-01T08:32:49.312Z,16.02
2019-04-01T08:35:18.014Z,16.30
2019-04-01T08:37:46.766Z,16.02
2019-04-01T08:40:15.434Z,16.22
2019-04-01T08:42:44.115Z,16.80
2019-04-01T08:45:14.933Z,16.28
2019-04-01T08:47:48.564Z,16.04
2019-04-01T08:50:17.755Z,16.31
2019-04-01T08:52:46.474Z,17.25
2019-04-01T08:55:15.231Z,17.69
2019-04-01T08:57:45.874Z,17.16
2019-04-01T09:00:16.025Z,17.86
2019-04-01T09:02:45.040Z,18.12
2019-04-01T09:05:14.624Z,18.03
2019-04-01T09:07:43.785Z,17.29
2019-04-01T09:10:13.811Z,18.35
2019-04-01T09:12:42.901Z,18.35
2019-04-01T09:15:12.363Z,18.25
2019-04-01T09:17:46.298Z,18.30
2019-04-01T09:20:14.966Z,18.86
2019-04-01T09:22:43.614Z,18.78
2019-04-01T09:25:13.082Z,18.98
2019-04-01T09:27:41.733Z,19.77
2019-04-01T09:30:10.880Z,18.97
2019-04-01T09:32:40.071Z,20.07
2019-04-01T09:35:09.291Z,20.13
2019-04-01T09:37:38.206Z,20.35
2019-04-01T09:40:07.980Z,19.98
2019-04-01T09:42:38.177Z,20.14
2019-04-01T09:45:08.495Z,20.42
2019-04-01T09:47:37.155Z,20.55
2019-04-01T09:50:07.707Z,20.76
2019-04-01T09:52:36.350Z,20.28
2019-04-01T09:55:06.625Z,20.22
2019-04-01T09:57:35.428Z,20.34
2019-04-01T10:00:09.860Z,20.60
2019-04-01T10:02:40.071Z,21.31
2019-04-01T10:05:10.303Z,20.85
2019-04-01T10:07:39.173Z,19.98
2019-04-01T10:10:08.379Z,20.04
2019-04-01T10:12:38.461Z,20.55
2019-04-01T10:15:08.095Z,19.55
2019-04-01T10:17:42.221Z,20.41
2019-04-01T10:20:11.584Z,20.41
2019-04-01T10:22:40.250Z,20.31
2019-04-01T10:25:09.603Z,20.37
2019-04-01T10:27:38.273Z,20.70
2019-04-01T10:30:11.146Z,21.01
2019-04-01T10:32:39.790Z,21.42
2019-04-01T10:35:09.159Z,21.47
2019-04-01T10:37:37.909Z,21.81
2019-04-01T10:40:07.987Z,22.15
2019-04-01T10:42:36.698Z,22.23
2019-04-01T10:45:09.907Z,21.82
2019-04-01T10:47:38.705Z,22.18
2019-04-01T10:50:09.110Z,22.19
2019-04-01T10:52:37.864Z,22.05
2019-04-01T10:55:07.974Z,21.57
2019-04-01T10:57:43.534Z,21.73
2019-04-01T11:00:12.291Z,21.44
2019-04-01T11:02:41.064Z,22.05
2019-04-01T11:05:11.538Z,22.22
2019-04-01T11:07:40.371Z,22.36
2019-04-01T11:10:11.707Z,21.84
2019-04-01T11:12:40.232Z,21.70
2019-04-01T11:15:15.179Z,21.94
2019-04-01T11:17:41.661Z,22.16
2019-04-01T11:20:10.512Z,22.19
2019-04-01T11:22:39.149Z,22.21
2019-04-01T11:25:08.887Z,22.08
2019-04-01T11:27:37.472Z,22.21
2019-04-01T11:30:08.384Z,22.22
2019-04-01T11:32:37.535Z,22.59
2019-04-01T11:35:08.954Z,22.44
2019-04-01T11:37:39.147Z,22.34
2019-04-01T11:40:11.337Z,22.46
2019-04-01T11:42:40.613Z,22.30
2019-04-01T11:45:09.894Z,22.77
2019-04-01T11:47:38.626Z,22.43
2019-04-01T11:50:07.528Z,22.07
2019-04-01T11:52:37.126Z,22.27
2019-04-01T11:55:09.131Z,22.37
2019-04-01T11:57:38.603Z,22.29
2019-04-01T12:00:12.657Z,22.29
2019-04-01T12:02:41.959Z,22.54
2019-04-01T12:05:10.704Z,22.30
2019-04-01T12:07:40.891Z,22.36
2019-04-01T12:10:10.147Z,22.40
2019-04-01T12:12:38.732Z,22.39
2019-04-01T12:15:11.646Z,22.50
2019-04-01T12:17:41.329Z,22.60
2019-04-01T12:20:11.831Z,22.64
2019-04-01T12:22:41.268Z,22.39
2019-04-01T12:25:10.930Z,22.57
2019-04-01T12:27:39.509Z,22.41
2019-04-01T12:30:10.366Z,22.23
2019-04-01T12:32:39.021Z,22.58
2019-04-01T12:35:08.664Z,22.81
2019-04-01T12:37:37.392Z,22.62
2019-04-01T12:40:07.476Z,22.55
2019-04-01T12:42:36.190Z,22.67
2019-04-01T12:45:07.326Z,22.50
2019-04-01T12:47:36.419Z,22.23
2019-04-01T12:50:05.776Z,22.28
2019-04-01T12:52:34.500Z,22.72
2019-04-01T12:55:03.247Z,22.60
2019-04-01T12:57:31.952Z,22.52
2019-04-01T13:00:00.736Z,22.44
2019-04-01T13:02:30.396Z,22.55
2019-04-01T13:04:58.996Z,22.54
2019-04-01T13:07:27.821Z,22.71
2019-04-01T13:09:56.378Z,22.49
2019-04-01T13:12:27.297Z,22.64
2019-04-01T13:14:56.990Z,22.55
2019-04-01T13:17:25.671Z,22.48
2019-04-01T13:19:55.111Z,22.44
2019-04-01T13:22:24.614Z,22.36
2019-04-01T13:24:53.342Z,22.53
2019-04-01T13:27:23.655Z,22.45
2019-04-01T13:29:52.910Z,22.47
2019-04-01T13:32:21.726Z,22.38
2019-04-01T13:34:50.332Z,22.30
2019-04-01T13:37:19.728Z,22.38
2019-04-01T13:39:48.395Z,22.37
2019-04-01T13:42:17.040Z,22.34
2019-04-01T13:44:46.084Z,22.39
2019-04-01T13:47:14.749Z,22.49
2019-04-01T13:49:43.254Z,22.37
2019-04-01T13:52:12.392Z,22.48
2019-04-01T13:54:41.439Z,22.16
2019-04-01T13:57:10.381Z,22.29
2019-04-01T13:59:49.118Z,22.35
2019-04-01T14:02:09.499Z,22.44
2019-04-01T14:04:38.207Z,22.57
2019-04-01T14:07:12.211Z,22.59
2019-04-01T14:09:40.778Z,22.47
2019-04-01T14:12:09.442Z,22.41
2019-04-01T14:14:38.598Z,22.33
2019-04-01T14:17:08.161Z,22.29
2019-04-01T14:19:36.669Z,22.31
2019-04-01T14:22:05.355Z,21.92
2019-04-01T14:24:35.448Z,22.09
2019-04-01T14:27:04.095Z,22.28
2019-04-01T14:29:32.820Z,22.20
2019-04-01T14:32:04.335Z,22.25
2019-04-01T14:34:33.416Z,22.07
2019-04-01T14:37:02.138Z,22.13
2019-04-01T14:39:35.021Z,22.08
2019-04-01T14:42:03.760Z,22.15
2019-04-01T14:44:32.501Z,22.14
2019-04-01T14:47:01.247Z,22.16
2019-04-01T14:49:29.979Z,22.14
2019-04-01T14:51:58.665Z,22.14
2019-04-01T14:54:27.317Z,22.06
2019-04-01T14:56:56.256Z,22.17
2019-04-01T14:59:25.915Z,22.12
2019-04-01T15:01:55.706Z,22.02
2019-04-01T15:04:24.351Z,21.94
2019-04-01T15:06:53.067Z,21.80
2019-04-01T15:09:23.499Z,21.64
2019-04-01T15:11:52.250Z,21.89
2019-04-01T15:14:20.972Z,21.79
2019-04-01T15:16:52.613Z,21.66
2019-04-01T15:19:21.291Z,21.68
2019-04-01T15:21:52.054Z,21.68
2019-04-01T15:24:21.162Z,21.65
2019-04-01T15:26:49.847Z,21.62
2019-04-01T15:29:18.475Z,21.41
2019-04-01T15:31:47.138Z,21.34
2019-04-01T15:34:17.211Z,21.28
2019-04-01T15:36:45.985Z,21.25
2019-04-01T15:39:17.777Z,21.14
2019-04-01T15:41:46.457Z,21.10
2019-04-01T15:44:14.977Z,21.14
2019-04-01T15:46:44.861Z,21.04
2019-04-01T15:49:13.534Z,21.07
2019-04-01T15:51:42.241Z,20.89
2019-04-01T15:54:10.892Z,20.79
2019-04-01T15:56:41.832Z,20.68
2019-04-01T15:59:09.997Z,20.65
2019-04-01T16:01:38.758Z,20.61
2019-04-01T16:04:08.501Z,20.48
2019-04-01T16:06:37.417Z,20.45
2019-04-01T16:09:07.242Z,20.44
2019-04-01T16:11:36.775Z,20.37
2019-04-01T16:14:08.761Z,20.30
2019-04-01T16:16:37.604Z,20.26
2019-04-01T16:19:06.281Z,20.15
2019-04-01T16:21:34.938Z,20.12
2019-04-01T16:24:03.581Z,19.91
2019-04-01T16:26:32.322Z,19.71
2019-04-01T16:29:01.014Z,19.58
2019-04-01T16:31:29.672Z,19.46
2019-04-01T16:33:58.361Z,19.41
2019-04-01T16:36:27.030Z,19.45
2019-04-01T16:38:55.605Z,19.34
2019-04-01T16:41:24.293Z,19.28
2019-04-01T16:43:52.952Z,19.14
2019-04-01T16:46:21.595Z,19.10
2019-04-01T16:48:51.230Z,18.99
2019-04-01T16:51:21.351Z,18.95
2019-04-01T16:53:50.300Z,18.88
2019-04-01T16:56:19.482Z,18.78
2019-04-01T16:58:48.855Z,18.78
2019-04-01T17:01:17.505Z,18.72
2019-04-01T17:03:46.198Z,18.63
2019-04-01T17:06:15.111Z,18.50
2019-04-01T17:08:44.693Z,18.48
2019-04-01T17:11:13.395Z,18.04
2019-04-01T17:13:42.060Z,18.29
2019-04-01T17:16:10.923Z,18.29
2019-04-01T17:18:39.572Z,18.32
2019-04-01T17:21:08.259Z,18.32
2019-04-01T17:23:36.909Z,18.19
2019-04-01T17:26:05.755Z,18.25
2019-04-01T17:28:34.871Z,18.12
2019-04-01T17:31:03.451Z,18.06
2019-04-01T17:33:32.113Z,18.07
2019-04-01T17:36:00.806Z,17.91
2019-04-01T17:38:29.462Z,17.96
2019-04-01T17:40:58.046Z,18.11
2019-04-01T17:43:26.989Z,18.11
2019-04-01T17:45:57.059Z,17.91
2019-04-01T17:48:25.706Z,17.93
2019-04-01T17:50:54.698Z,18.01
2019-04-01T17:53:23.359Z,18.13
2019-04-01T17:55:52.142Z,17.90
2019-04-01T17:58:21.217Z,17.56
2019-04-01T18:00:59.969Z,17.83
2019-04-01T18:03:28.711Z,17.72
2019-04-01T18:05:57.431Z,17.31
2019-04-01T18:08:26.297Z,17.05
2019-04-01T18:10:55.057Z,17.05
2019-04-01T18:13:23.744Z,17.31
2019-04-01T18:15:53.209Z,17.37
2019-04-01T18:18:27.083Z,17.19
2019-04-01T18:20:52.293Z,17.13
2019-04-01T18:23:22.183Z,16.83
2019-04-01T18:25:51.438Z,16.64
2019-04-01T18:28:20.126Z,16.54
2019-04-01T18:30:49.468Z,16.49
2019-04-01T18:33:19.752Z,16.26
2019-04-01T18:35:50.583Z,16.12
2019-04-01T18:38:19.108Z,16.14
2019-04-01T18:40:47.756Z,16.20
2019-04-01T18:43:16.458Z,16.40
2019-04-01T18:45:48.130Z,16.19
2019-04-01T18:48:16.784Z,15.87
2019-04-01T18:50:45.443Z,15.86
2019-04-01T18:53:14.097Z,15.54
2019-04-01T18:55:42.786Z,15.37
2019-04-01T18:58:11.550Z,15.41
2019-04-01T19:00:40.211Z,15.41
2019-04-01T19:03:10.442Z,15.37
2019-04-01T19:05:39.268Z,15.22
2019-04-01T19:08:07.870Z,15.23
2019-04-01T19:10:39.189Z,15.20
2019-04-01T19:13:12.053Z,14.86
2019-04-01T19:15:41.693Z,14.81
2019-04-01T19:18:08.690Z,14.60
2019-04-01T19:20:37.271Z,14.60
2019-04-01T19:23:06.266Z,14.71
2019-04-01T19:25:34.969Z,14.78
2019-04-01T19:28:03.632Z,14.65
2019-04-01T19:30:32.215Z,14.54
2019-04-01T19:33:00.842Z,14.62
2019-04-01T19:35:29.486Z,14.60
2019-04-01T19:38:03.371Z,14.48
2019-04-01T19:40:32.073Z,14.39
2019-04-01T19:43:03.462Z,14.39
2019-04-01T19:45:31.377Z,14.47
2019-04-01T19:48:00.272Z,14.43
2019-04-01T19:50:28.866Z,14.32
2019-04-01T19:52:57.499Z,14.18
2019-04-01T19:55:26.887Z,14.03
2019-04-01T19:57:57.481Z,13.84
2019-04-01T20:00:28.055Z,13.58
2019-04-01T20:02:56.846Z,13.53
2019-04-01T20:05:25.781Z,13.50
2019-04-01T20:07:54.362Z,13.51
2019-04-01T20:10:23.023Z,13.68
2019-04-01T20:12:51.723Z,13.66
2019-04-01T20:15:20.571Z,13.62
2019-04-01T20:17:49.241Z,13.46
2019-04-01T20:20:17.942Z,13.47
2019-04-01T20:22:46.590Z,13.39
2019-04-01T20:25:17.004Z,13.32
2019-04-01T20:27:45.736Z,13.18
2019-04-01T20:30:14.876Z,13.01
2019-04-01T20:32:43.528Z,12.86
2019-04-01T20:35:22.782Z,12.97
2019-04-01T20:37:42.930Z,12.87
2019-04-01T20:40:12.106Z,12.76
2019-04-01T20:42:40.715Z,12.65
2019-04-01T20:45:11.153Z,12.50
2019-04-01T20:47:40.375Z,12.43
2019-04-01T20:50:10.797Z,12.37
2019-04-01T20:52:39.444Z,12.28
2019-04-01T20:55:08.297Z,12.26
2019-04-01T20:57:36.991Z,12.07
2019-04-01T21:00:09.268Z,12.06
2019-04-01T21:02:38.179Z,12.18
2019-04-01T21:05:09.075Z,12.38
2019-04-01T21:07:37.852Z,12.46
2019-04-01T21:10:07.997Z,12.45
2019-04-01T21:12:37.242Z,12.43
2019-04-01T21:15:07.532Z,12.26
2019-04-01T21:17:37.196Z,12.27
2019-04-01T21:20:09.148Z,12.33
2019-04-01T21:22:37.871Z,12.19
2019-04-01T21:25:08.674Z,12.11
2019-04-01T21:27:37.496Z,12.11
2019-04-01T21:30:11.071Z,12.11
2019-04-01T21:32:39.724Z,12.20
2019-04-01T21:35:09.438Z,12.27
2019-04-01T21:37:38.535Z,12.15
2019-04-01T21:40:07.889Z,11.60
2019-04-01T21:42:36.912Z,11.58
2019-04-01T21:45:07.765Z,11.55
2019-04-01T21:47:36.513Z,11.64
2019-04-01T21:50:06.969Z,11.71
2019-04-01T21:52:37.737Z,11.58
2019-04-01T21:55:08.348Z,11.66
2019-04-01T21:57:37.389Z,11.59
2019-04-01T22:00:11.085Z,11.61
2019-04-01T22:02:39.812Z,11.54
2019-04-01T22:05:10.157Z,11.45
2019-04-01T22:07:39.574Z,11.54
2019-04-01T22:10:08.437Z,11.51
2019-04-01T22:12:37.082Z,11.58
2019-04-01T22:15:06.744Z,11.65
2019-04-01T22:17:35.397Z,11.55
2019-04-01T22:20:06.274Z,11.44
2019-04-01T22:22:34.959Z,11.49
2019-04-01T22:25:04.818Z,11.45
2019-04-01T22:27:35.084Z,11.50
2019-04-01T22:30:05.934Z,11.51
2019-04-01T22:32:34.578Z,11.35
2019-04-01T22:35:05.417Z,11.36
2019-04-01T22:37:37.228Z,11.33
2019-04-01T22:40:06.971Z,11.29
2019-04-01T22:42:35.653Z,11.24
2019-04-01T22:45:08.133Z,11.04
2019-04-01T22:47:36.730Z,10.93
2019-04-01T22:50:10.274Z,10.90
2019-04-01T22:52:42.072Z,11.00
2019-04-01T22:55:09.791Z,10.85
2019-04-01T22:57:38.414Z,10.73
2019-04-01T23:00:07.954Z,10.62
2019-04-01T23:02:38.065Z,10.47
2019-04-01T23:05:09.520Z,10.54
2019-04-01T23:07:38.096Z,10.70
2019-04-01T23:10:07.948Z,10.57
2019-04-01T23:12:36.845Z,10.47
2019-04-01T23:15:09.028Z,10.28
2019-04-01T23:17:38.739Z,10.13
2019-04-01T23:20:08.221Z,10.20
2019-04-01T23:22:36.813Z,10.44
2019-04-01T23:25:06.756Z,10.48
2019-04-01T23:27:35.453Z,10.59
2019-04-01T23:30:07.035Z,10.43
2019-04-01T23:32:35.543Z,10.58
2019-04-01T23:35:05.207Z,10.66
2019-04-01T23:37:33.902Z,10.63
2019-04-01T23:40:03.395Z,10.68
2019-04-01T23:42:32.235Z,10.76
2019-04-01T23:45:00.923Z,10.53
2019-04-01T23:47:34.599Z,10.63
2019-04-01T23:50:03.243Z,10.44
2019-04-01T23:52:31.835Z,10.02
2019-04-01T23:55:00.649Z,9.74
2019-04-01T23:57:29.329Z,9.73
2019-04-01T23:59:58.926Z,9.44
